KHVR

Havre City-County Airport

Havre, Montana, USA
METAR KHVR 232153Z AUTO 08007KT 10SM CLR M15/M18 A2988 RMK AO2 SLP182 T11501183
Observed Flight Rules
Feb-23 @ 21:53 UTC (39 minutes ago) Visual Flight Rules
Wind Visibility Clouds
80° at 7 knots 10 miles
  • Clear skies
Temperatures Readings
Current -15°C / 5°F
Dewpoint -18°C / -0°F
Humidity 78%
Altimeter 29.88" Hg
Pressure 1018.2 hPa
Elevation 787
METAR KHVR 232153Z AUTO 08007KT 10SM CLR M15/M18 A2988 RMK AO2 SLP182 T11501183
Observed Flight Rules
Feb-23 @ 21:53 UTC
(39 minutes ago)
VFR
Wind Visibility
80° at 7 knots 10 miles
Clouds
  • Clear skies
Temperature Dewpoint
-15°C / 5°F -18°C / -0°F
Humidity Altimeter Pressure
78% 29.88" Hg 1018.2 hPa